Time;durP1;ratioP1;P1;durP2;ratioP2;P2;SDS_P1;SDS_P2;PMS_P1;PMS_P2;Temp;Humidity;BMP_temperature;BMP_pressure;BME280_temperature;BME280_humidity;BME280_pressure;Samples;Min_cycle;Max_cycle;Signal;HPM_P1;HPM_P2
2021/01/10 00:01:06;;;;;;;25.90;12.70;;;-0.30;72.10;;;0.16;63.31;98134.88;5103398;28;20054;-44
2021/01/10 00:03:33;;;;;;;22.30;12.47;;;-0.30;72.00;;;0.12;62.72;98128.97;5103357;28;20055;-44
2021/01/10 00:06:01;;;;;;;13.40;7.50;;;-0.40;72.00;;;0.06;62.82;98136.28;5102850;28;20048;-43
2021/01/10 00:08:28;;;;;;;14.27;6.40;;;-0.50;72.00;;;-0.03;62.85;98129.78;5103248;28;20058;-44
2021/01/10 00:10:55;;;;;;;11.93;6.43;;;-0.60;72.50;;;-0.09;62.98;98127.53;5085554;28;20239;-46
2021/01/10 00:13:22;;;;;;;15.03;7.00;;;-0.70;72.70;;;-0.16;62.83;98131.38;5102485;28;20066;-45
2021/01/10 00:15:50;;;;;;;15.63;7.57;;;-0.80;73.00;;;-0.21;63.24;98127.25;5102951;28;20048;-44
2021/01/10 00:18:17;;;;;;;15.17;7.87;;;-0.80;73.10;;;-0.22;63.15;98130.78;5102859;28;20043;-44
2021/01/10 00:20:45;;;;;;;18.10;9.03;;;-0.80;73.50;;;-0.22;63.77;98130.78;5085073;28;20048;-43
2021/01/10 00:23:12;;;;;;;11.87;6.77;;;-0.70;73.30;;;-0.21;63.76;98124.63;5103266;28;20044;-45
2021/01/10 00:25:39;;;;;;;18.10;7.73;;;-0.70;72.80;;;-0.18;63.75;98133.25;5084552;28;20343;-43
2021/01/10 00:28:07;;;;;;;14.60;7.73;;;-0.60;73.10;;;-0.14;63.29;98134.75;5101904;28;20365;-45
2021/01/10 00:30:34;;;;;;;15.70;8.50;;;-0.60;73.30;;;-0.14;63.49;98127.75;5102903;28;20236;-46
2021/01/10 00:33:03;;;;;;;14.87;7.80;;;-0.50;73.10;;;-0.11;64.04;98127.59;5102784;28;20052;-46
2021/01/10 00:35:30;;;;;;;15.33;7.93;;;-0.50;73.40;;;-0.08;63.77;98131.81;5102542;28;20056;-45
2021/01/10 00:37:58;;;;;;;14.67;7.63;;;-0.50;73.20;;;-0.06;63.81;98127.34;5102523;28;20048;-43
2021/01/10 00:40:26;;;;;;;17.00;8.07;;;-0.40;73.10;;;-0.04;64.00;98122.84;5102651;28;20359;-43
2021/01/10 00:42:54;;;;;;;15.20;8.13;;;-0.40;73.00;;;-0.01;63.91;98134.00;5085179;28;20054;-45
2021/01/10 00:45:21;;;;;;;16.67;7.97;;;-0.40;73.00;;;0.01;63.39;98130.47;5102569;28;20046;-44
2021/01/10 00:47:54;;;;;;;14.97;8.00;;;-0.40;72.90;;;0.02;63.96;98133.03;5102588;28;20048;-44
2021/01/10 00:50:34;;;;;;;15.73;8.77;;;-0.40;72.90;;;0.02;63.95;98119.94;5084067;28;20054;-44
2021/01/10 00:53:05;;;;;;;13.80;8.73;;;-0.30;73.00;;;0.06;63.56;98128.44;5102494;28;20221;-44
2021/01/10 00:55:35;;;;;;;16.57;8.77;;;-0.30;73.00;;;0.06;63.25;98137.16;5083523;28;20070;-42
2021/01/10 00:58:04;;;;;;;12.43;8.97;;;-0.30;72.80;;;0.06;63.31;98137.16;5084420;28;20067;-43
2021/01/10 01:00:31;;;;;;;16.40;8.37;;;-0.30;72.80;;;0.06;63.39;98137.16;5100279;28;20306;-42
2021/01/10 01:02:59;;;;;;;15.23;8.70;;;-0.40;72.60;;;0.04;63.97;98136.41;5082387;28;20050;-43
2021/01/10 01:05:27;;;;;;;15.17;8.40;;;-0.40;72.60;;;0.02;63.63;98130.41;5100649;28;20044;-43
2021/01/10 01:07:56;;;;;;;15.00;7.90;;;-0.40;72.60;;;-0.01;62.97;98128.78;5102307;28;20040;-43
2021/01/10 01:10:34;;;;;;;13.07;7.03;;;-0.50;72.70;;;-0.06;63.57;98143.03;5101010;28;20048;-43
2021/01/10 01:13:02;;;;;;;13.07;7.33;;;-0.60;72.60;;;-0.09;63.65;98143.22;5102234;28;20058;-45
2021/01/10 01:15:29;;;;;;;14.93;7.90;;;-0.60;72.80;;;-0.14;63.10;98145.22;5101710;28;20217;-44
2021/01/10 01:17:56;;;;;;;14.30;8.00;;;-0.60;72.90;;;-0.14;63.35;98151.31;5102077;28;20040;-45
2021/01/10 01:20:23;;;;;;;12.33;7.60;;;-0.60;73.00;;;-0.13;63.44;98153.00;5102604;28;20050;-43
2021/01/10 01:22:51;;;;;;;14.23;7.10;;;-0.60;72.80;;;-0.12;63.68;98151.22;5102073;28;20043;-43
2021/01/10 01:25:19;;;;;;;17.07;7.93;;;-0.50;73.20;;;-0.08;63.95;98155.38;5098748;28;20047;-43
2021/01/10 01:27:46;;;;;;;20.23;8.93;;;-0.50;72.90;;;-0.07;64.03;98154.44;5102095;28;20048;-43
2021/01/10 01:30:14;;;;;;;14.70;7.33;;;-0.50;73.10;;;-0.06;64.10;98164.84;5101881;28;20048;-47
2021/01/10 01:32:41;;;;;;;11.70;7.27;;;-0.40;72.90;;;-0.03;63.56;98162.03;5101979;28;20058;-44
2021/01/10 01:35:09;;;;;;;12.93;7.27;;;-0.40;72.80;;;0.02;63.50;98166.19;5101503;28;20255;-45
2021/01/10 01:37:37;;;;;;;12.53;6.73;;;-0.30;72.90;;;0.05;64.13;98163.41;5101797;28;20040;-43
2021/01/10 01:40:06;;;;;;;13.40;6.80;;;-0.30;72.70;;;0.08;63.69;98168.47;5100908;28;20044;-42
2021/01/10 01:42:33;;;;;;;11.77;6.67;;;-0.30;72.50;;;0.11;63.62;98173.56;5101915;28;20209;-43
2021/01/10 01:45:08;;;;;;;11.50;6.50;;;-0.30;72.50;;;0.14;64.25;98173.41;5101354;28;20055;-43
2021/01/10 01:47:36;;;;;;;15.73;7.60;;;-0.20;72.50;;;0.16;63.91;98167.13;5101970;28;20233;-43
2021/01/10 01:50:05;;;;;;;16.00;7.13;;;-0.20;72.40;;;0.19;64.40;98174.84;5100752;28;20047;-42
2021/01/10 01:52:33;;;;;;;12.40;7.03;;;-0.10;72.60;;;0.22;63.59;98171.19;5101775;28;20048;-44
2021/01/10 01:55:04;;;;;;;11.20;7.33;;;-0.10;72.30;;;0.26;64.36;98182.34;5101056;28;20052;-43
2021/01/10 01:57:31;;;;;;;12.67;6.37;;;0.00;72.30;;;0.27;63.89;98176.19;5101809;28;20110;-43
2021/01/10 02:00:00;;;;;;;11.97;6.70;;;0.00;72.10;;;0.27;63.89;98174.44;5100937;28;20054;-44
2021/01/10 02:02:28;;;;;;;13.80;7.07;;;0.00;72.30;;;0.28;63.71;98168.25;5101644;28;20048;-44
2021/01/10 02:05:10;;;;;;;12.50;6.73;;;0.00;72.10;;;0.30;64.35;98169.00;5099657;28;20339;-43
2021/01/10 02:08:05;;;;;;;13.37;7.40;;;0.00;72.00;;;0.32;63.75;98166.31;5100660;28;20048;-42
2021/01/10 02:10:37;;;;;;;13.75;7.35;;;0.00;72.00;;;0.32;64.07;98169.75;5100715;28;20052;-44
2021/01/10 02:13:15;;;;;;;10.90;6.53;;;-0.10;71.80;;;0.31;63.80;98169.84;5116774;28;20201;-43
2021/01/10 02:15:45;;;;;;;11.63;6.63;;;-0.10;72.10;;;0.32;63.54;98166.31;5099967;28;20051;-44
2021/01/10 02:18:14;;;;;;;12.97;6.70;;;-0.10;72.50;;;0.32;63.80;98168.91;5100457;28;20036;-43
2021/01/10 02:20:42;;;;;;;13.37;7.43;;;0.00;72.40;;;0.30;63.48;98161.13;5101600;28;20052;-44
2021/01/10 02:23:24;;;;;;;13.27;7.23;;;0.00;72.40;;;0.34;64.18;98175.75;5101138;28;20058;-45
2021/01/10 02:25:54;;;;;;;10.83;6.67;;;0.00;72.00;;;0.37;64.00;98177.38;5100092;28;20046;-44
2021/01/10 02:28:23;;;;;;;12.33;7.57;;;0.00;72.30;;;0.38;64.09;98169.41;5100462;28;20052;-43
2021/01/10 02:30:53;;;;;;;11.53;6.50;;;0.00;72.10;;;0.36;63.31;98166.03;5099337;28;20062;-42
2021/01/10 02:33:44;;;;;;;17.97;8.90;;;0.00;71.90;;;0.35;63.25;98166.97;5101904;28;20044;-43
2021/01/10 02:36:37;;;;;;;21.87;10.63;;;0.00;71.60;;;0.34;63.51;98170.53;5100584;28;20052;-47
2021/01/10 02:39:06;;;;;;;17.10;9.40;;;0.00;71.80;;;0.32;63.56;98161.91;5105000;28;20048;-43
2021/01/10 02:41:48;;;;;;;16.70;8.47;;;-0.10;72.10;;;0.32;63.45;98164.53;5105068;28;20044;-45
2021/01/10 02:44:35;;;;;;;18.23;9.57;;;0.00;72.10;;;0.34;63.45;98164.44;5104009;28;20232;-48
2021/01/10 02:47:02;;;;;;;14.10;7.93;;;0.00;72.10;;;0.32;64.15;98159.28;5104577;28;20044;-44
2021/01/10 02:49:30;;;;;;;16.03;7.50;;;-0.10;72.00;;;0.30;63.66;98163.75;5104304;28;20048;-44
2021/01/10 02:51:57;;;;;;;15.27;7.70;;;-0.10;72.10;;;0.30;64.15;98160.31;5104542;28;20060;-43
2021/01/10 02:54:24;;;;;;;13.80;7.90;;;-0.10;72.10;;;0.31;64.14;98147.13;5104267;28;20056;-43
2021/01/10 02:57:09;;;;;;;15.40;8.37;;;-0.10;72.00;;;0.31;64.10;98151.50;5104312;28;20377;-48
2021/01/10 02:59:41;;;;;;;12.63;7.53;;;-0.10;71.90;;;0.30;63.91;98149.81;5103721;28;20330;-47
2021/01/10 03:02:11;;;;;;;17.13;7.73;;;-0.10;71.60;;;0.27;63.63;98152.59;5104767;28;20044;-45
2021/01/10 03:04:39;;;;;;;14.93;7.00;;;-0.20;71.50;;;0.21;62.75;98152.94;5104489;28;20066;-46
2021/01/10 03:07:08;;;;;;;11.77;7.07;;;-0.30;71.50;;;0.17;62.72;98149.66;5104357;28;20032;-43
2021/01/10 03:09:37;;;;;;;16.43;8.57;;;-0.30;71.70;;;0.12;63.34;98143.84;5104386;28;20058;-44
2021/01/10 03:12:24;;;;;;;15.73;7.90;;;-0.40;71.60;;;0.06;63.41;98142.41;5103485;28;20058;-46
2021/01/10 03:15:00;;;;;;;16.97;8.53;;;-0.50;71.50;;;0.00;62.96;98140.13;5101979;28;20248;-42
2021/01/10 03:17:47;;;;;;;11.97;7.00;;;-0.50;72.00;;;-0.06;62.63;98127.34;5099821;28;20047;-43
2021/01/10 03:20:19;;;;;;;13.33;7.17;;;-0.60;71.80;;;-0.12;62.96;98128.50;5102648;28;20213;-44
2021/01/10 03:22:50;;;;;;;14.00;6.78;;;-0.70;72.00;;;-0.17;62.43;98134.94;5103699;28;20252;-45
2021/01/10 03:25:22;;;;;;;13.20;7.73;;;-0.70;71.90;;;-0.24;63.19;98131.78;5093730;28;20044;-44
2021/01/10 03:27:50;;;;;;;12.33;7.07;;;-0.80;72.00;;;-0.28;62.66;98125.03;5110074;28;20125;-42
2021/01/10 03:30:19;;;;;;;15.03;8.27;;;-0.80;72.40;;;-0.33;63.24;98122.69;5103421;28;20336;-46
2021/01/10 03:32:47;;;;;;;12.83;7.10;;;-0.90;72.40;;;-0.37;62.51;98121.13;5102803;28;20048;-43
2021/01/10 03:35:17;;;;;;;12.37;7.43;;;-0.90;72.40;;;-0.43;63.19;98117.09;5103643;28;20060;-45
2021/01/10 03:37:45;;;;;;;11.70;7.30;;;-0.90;72.30;;;-0.49;62.88;98122.63;5104007;28;20052;-43
2021/01/10 03:40:13;;;;;;;15.47;7.70;;;-1.10;72.50;;;-0.55;62.65;98116.88;5102771;28;20374;-43
2021/01/10 03:42:41;;;;;;;12.33;6.73;;;-1.10;72.50;;;-0.63;62.68;98115.50;5103806;28;20054;-42
2021/01/10 03:45:11;;;;;;;11.33;6.30;;;-1.20;72.90;;;-0.69;62.51;98128.91;5102307;28;20043;-43
2021/01/10 03:47:38;;;;;;;12.10;7.07;;;-1.30;73.10;;;-0.72;63.59;98131.66;5102405;28;20118;-43
2021/01/10 03:50:08;;;;;;;11.87;6.03;;;-1.30;73.10;;;-0.77;62.85;98132.84;5103718;28;20043;-42
2021/01/10 03:52:36;;;;;;;14.23;6.20;;;-1.30;73.10;;;-0.83;63.29;98128.78;5103766;28;20058;-47
2021/01/10 03:55:06;;;;;;;13.00;6.27;;;-1.40;73.00;;;-0.89;63.16;98127.31;5103075;28;20504;-43
2021/01/10 03:57:37;;;;;;;14.30;6.87;;;-1.40;73.20;;;-0.90;63.09;98132.63;5102593;28;20066;-45
2021/01/10 04:00:11;;;;;;;14.30;7.67;;;-1.40;73.50;;;-0.91;63.08;98134.38;5103546;28;20046;-46
2021/01/10 04:02:39;;;;;;;14.80;6.73;;;-1.40;73.50;;;-0.91;63.65;98137.00;5102885;28;20056;-43
2021/01/10 04:05:07;;;;;;;11.47;6.23;;;-1.40;73.10;;;-0.93;63.53;98136.25;5102899;28;20044;-44
2021/01/10 04:07:35;;;;;;;12.63;6.70;;;-1.40;73.00;;;-0.93;63.47;98138.84;5103416;28;20381;-43
2021/01/10 04:10:04;;;;;;;14.30;6.63;;;-1.40;73.00;;;-0.97;62.87;98139.91;5103378;28;20366;-45
2021/01/10 04:12:32;;;;;;;12.80;6.77;;;-1.50;72.90;;;-1.03;63.46;98138.47;5103276;28;20048;-42
2021/01/10 04:14:59;;;;;;;13.57;6.63;;;-1.50;73.20;;;-1.05;63.06;98147.28;5102173;28;20054;-45
2021/01/10 04:17:27;;;;;;;12.87;7.03;;;-1.60;73.20;;;-1.09;63.36;98143.97;5102463;28;20060;-45
2021/01/10 04:19:55;;;;;;;12.23;7.00;;;-1.60;73.20;;;-1.13;63.18;98145.06;5103026;28;20050;-42
2021/01/10 04:22:23;;;;;;;11.90;6.80;;;-1.70;73.50;;;-1.15;63.39;98135.59;5102545;28;20052;-43
2021/01/10 04:24:51;;;;;;;14.80;7.53;;;-1.70;73.70;;;-1.17;63.63;98145.28;5101285;28;20255;-43
2021/01/10 04:27:19;;;;;;;13.30;6.73;;;-1.70;73.60;;;-1.22;63.23;98146.38;5102301;28;20048;-45
2021/01/10 04:29:51;;;;;;;11.70;6.87;;;-1.70;73.60;;;-1.23;63.83;98138.59;5103013;28;20051;-44
2021/01/10 04:32:18;;;;;;;14.60;7.13;;;-1.70;73.80;;;-1.22;63.62;98146.38;5102407;28;20078;-43
2021/01/10 04:34:46;;;;;;;11.27;6.57;;;-1.70;73.70;;;-1.22;63.81;98142.91;5102594;28;20061;-44
2021/01/10 04:37:13;;;;;;;11.23;6.13;;;-1.70;73.50;;;-1.22;63.67;98146.38;5102962;28;20048;-43
2021/01/10 04:39:41;;;;;;;13.17;6.73;;;-1.70;73.60;;;-1.23;63.45;98144.66;5102616;28;20058;-43
2021/01/10 04:42:10;;;;;;;13.53;7.37;;;-1.70;73.60;;;-1.26;63.59;98142.22;5102830;28;20044;-43
2021/01/10 04:44:38;;;;;;;12.00;6.87;;;-1.80;73.40;;;-1.30;63.80;98135.47;5102606;28;20040;-44
2021/01/10 04:47:06;;;;;;;13.10;7.20;;;-1.80;73.70;;;-1.30;63.42;98135.47;5102324;28;20235;-44
2021/01/10 04:49:36;;;;;;;13.93;7.90;;;-1.80;73.70;;;-1.29;63.69;98139.75;5102505;28;20052;-43
2021/01/10 04:52:06;;;;;;;13.90;6.73;;;-1.70;73.90;;;-1.29;63.61;98138.91;5101866;28;20251;-43
2021/01/10 04:54:41;;;;;;;13.57;7.00;;;-1.70;73.90;;;-1.30;63.38;98145.03;5101484;28;20176;-43
2021/01/10 04:57:11;;;;;;;13.80;7.63;;;-1.80;73.30;;;-1.33;63.89;98143.44;5101790;28;20051;-43
2021/01/10 04:59:43;;;;;;;15.40;7.90;;;-1.80;73.40;;;-1.36;63.58;98148.78;5101589;28;20040;-42
2021/01/10 05:02:10;;;;;;;13.10;6.87;;;-1.80;73.30;;;-1.37;63.62;98149.72;5102445;28;20054;-43
2021/01/10 05:04:40;;;;;;;13.07;7.03;;;-1.90;73.70;;;-1.40;63.63;98145.50;5102213;28;20390;-44
2021/01/10 05:07:07;;;;;;;14.13;6.50;;;-1.90;73.60;;;-1.44;63.42;98154.38;5100311;28;20048;-42
2021/01/10 05:09:37;;;;;;;15.57;7.93;;;-1.90;73.60;;;-1.44;63.53;98156.16;5102232;28;20058;-43
2021/01/10 05:12:05;;;;;;;15.27;7.13;;;-1.90;73.50;;;-1.47;63.54;98154.56;5102063;28;20259;-43
2021/01/10 05:14:32;;;;;;;12.17;7.30;;;-2.00;73.30;;;-1.50;63.73;98146.84;5102150;28;20340;-43
2021/01/10 05:16:59;;;;;;;13.67;7.03;;;-2.00;73.60;;;-1.55;63.46;98143.63;5102073;28;20055;-43
2021/01/10 05:19:30;;;;;;;11.47;6.73;;;-2.10;73.90;;;-1.57;63.42;98148.09;5102009;28;20328;-44
2021/01/10 05:22:07;;;;;;;14.87;7.63;;;-2.10;73.70;;;-1.60;63.51;98145.63;5102083;28;20051;-44
2021/01/10 05:24:35;;;;;;;13.20;7.60;;;-2.10;73.70;;;-1.62;63.72;98147.44;5101961;28;20052;-43
2021/01/10 05:27:03;;;;;;;15.20;7.93;;;-2.10;73.60;;;-1.66;63.56;98146.75;5101633;28;20239;-46
2021/01/10 05:29:30;;;;;;;13.37;7.30;;;-2.20;73.60;;;-1.70;63.65;98144.38;5102006;28;20054;-43
2021/01/10 05:31:59;;;;;;;14.40;8.60;;;-2.20;73.70;;;-1.71;63.57;98145.28;5115803;22;20052;-49
2021/01/10 05:34:27;;;;;;;13.83;7.60;;;-2.20;73.70;;;-1.75;63.63;98156.78;5100884;28;20054;-47
2021/01/10 05:36:58;;;;;;;13.30;7.27;;;-2.30;74.20;;;-1.77;63.72;98146.41;5101525;28;20054;-46
2021/01/10 05:39:30;;;;;;;13.43;7.30;;;-2.30;74.20;;;-1.78;63.73;98147.34;5101924;28;20066;-49
2021/01/10 05:42:05;;;;;;;13.93;7.87;;;-2.30;74.40;;;-1.78;64.02;98142.13;5101909;28;20058;-47
2021/01/10 05:44:44;;;;;;;13.77;7.90;;;-2.30;74.60;;;-1.79;63.94;98145.63;5101943;28;20365;-47
2021/01/10 05:47:14;;;;;;;13.77;8.13;;;-2.20;74.80;;;-1.76;64.15;98150.72;5101805;28;20044;-46
2021/01/10 05:49:49;;;;;;;13.70;8.07;;;-2.10;74.70;;;-1.73;64.51;98145.34;5101785;28;20048;-47
2021/01/10 05:52:18;;;;;;;17.17;8.30;;;-2.10;74.60;;;-1.68;64.48;98147.75;5101206;28;20062;-49
2021/01/10 05:54:48;;;;;;;16.63;8.63;;;-2.10;74.60;;;-1.63;64.71;98154.44;5101098;28;20056;-50
2021/01/10 05:57:24;;;;;;;15.73;9.67;;;-2.00;75.20;;;-1.55;64.76;98153.22;5100720;28;20485;-46
2021/01/10 05:59:53;;;;;;;15.90;7.83;;;-1.90;75.30;;;-1.50;64.77;98157.31;5100619;28;20039;-47
2021/01/10 06:02:32;;;;;;;16.97;9.43;;;-1.80;75.30;;;-1.42;64.82;98154.31;5098264;28;20220;-49
2021/01/10 06:05:13;;;;;;;15.73;7.73;;;-1.70;75.50;;;-1.36;65.15;98156.63;5100986;28;20212;-50
2021/01/10 06:07:42;;;;;;;12.80;6.93;;;-1.60;75.40;;;-1.32;65.06;98160.78;5101140;28;20056;-46
2021/01/10 06:10:12;;;;;;;15.80;7.70;;;-1.60;75.30;;;-1.26;65.01;98160.50;5101602;28;20062;-48
2021/01/10 06:12:39;;;;;;;14.23;8.20;;;-1.50;75.30;;;-1.18;65.32;98162.75;5105461;28;20050;-47
2021/01/10 06:15:15;;;;;;;16.03;8.70;;;-1.40;75.10;;;-1.10;65.35;98157.16;5103901;28;20351;-47
2021/01/10 06:17:49;;;;;;;15.50;7.73;;;-1.30;75.10;;;-1.02;64.70;98165.44;5105328;28;20055;-46
2021/01/10 06:20:27;;;;;;;12.60;7.10;;;-1.30;74.80;;;-0.97;64.78;98152.13;5104354;28;20058;-47
2021/01/10 06:22:59;;;;;;;17.33;7.97;;;-1.20;74.80;;;-0.93;64.92;98161.50;5103954;28;20340;-52
2021/01/10 06:25:29;;;;;;;16.33;7.40;;;-1.20;74.60;;;-0.88;64.93;98162.97;5105121;28;20048;-47
2021/01/10 06:28:02;;;;;;;13.27;7.30;;;-1.20;74.50;;;-0.85;65.24;98164.59;5104976;28;20243;-50
2021/01/10 06:30:36;;;;;;;14.47;8.40;;;-1.10;74.50;;;-0.80;65.08;98159.97;5103408;28;20056;-47
2021/01/10 06:33:06;;;;;;;;;;;-1.10;74.50;;;-0.78;65.11;98162.50;5104775;28;20048;-47
2021/01/10 06:35:42;;;;;;;15.60;9.10;;;-1.10;74.20;;;-0.75;65.43;98162.38;5104468;28;19916;-48
2021/01/10 06:38:11;;;;;;;18.87;10.17;;;-1.00;74.50;;;-0.71;65.02;98156.06;5104327;28;20052;-46
2021/01/10 06:40:41;;;;;;;16.47;9.37;;;-1.00;74.30;;;-0.69;65.08;98155.03;5104294;28;20054;-47
2021/01/10 06:43:08;;;;;;;15.70;9.07;;;-0.90;74.50;;;-0.66;64.70;98152.28;5105115;28;20044;-48
2021/01/10 06:45:40;;;;;;;13.97;7.47;;;-1.00;74.30;;;-0.65;64.90;98158.34;5104576;28;20050;-47
2021/01/10 06:48:09;;;;;;;16.73;9.10;;;-1.00;74.40;;;-0.65;64.90;98153.13;5104979;28;20044;-46
2021/01/10 06:50:36;;;;;;;15.77;10.00;;;-0.90;74.30;;;-0.64;65.39;98155.66;5105220;28;20054;-48
2021/01/10 06:53:10;;;;;;;18.57;10.70;;;-0.90;74.40;;;-0.63;65.01;98146.88;5104694;28;20062;-46
2021/01/10 06:55:40;;;;;;;19.10;11.80;;;-0.90;74.30;;;-0.61;65.35;98152.03;5104409;28;20239;-49
2021/01/10 06:58:11;;;;;;;20.57;11.57;;;-0.90;74.50;;;-0.60;64.88;98162.44;5104447;28;20052;-46
2021/01/10 07:00:56;;;;;;;27.20;15.43;;;-0.90;74.40;;;-0.57;65.27;98152.72;5102942;28;20046;-49
2021/01/10 07:03:27;;;;;;;24.50;12.40;;;-0.80;74.20;;;-0.55;64.86;98156.94;5104676;28;20050;-47
2021/01/10 07:06:10;;;;;;;22.20;13.27;;;-0.90;74.20;;;-0.52;65.10;98158.56;5104200;28;20058;-47
2021/01/10 07:09:06;;;;;;;20.90;10.43;;;-0.80;74.00;;;-0.50;64.35;98161.97;5104986;28;20328;-49
2021/01/10 07:11:34;;;;;;;16.87;9.83;;;-0.80;73.70;;;-0.51;65.30;98160.25;5099977;28;20052;-48
2021/01/10 07:14:05;;;;;;;16.77;9.90;;;-0.80;73.90;;;-0.52;65.27;98159.41;5104486;28;20070;-47
2021/01/10 07:16:33;;;;;;;13.80;9.17;;;-0.80;73.90;;;-0.48;64.82;98162.72;5103898;28;20052;-46
2021/01/10 07:19:08;;;;;;;20.87;10.57;;;-0.80;73.80;;;-0.47;64.87;98164.41;5104368;28;20052;-51
2021/01/10 07:21:45;;;;;;;17.95;11.88;;;-0.80;73.70;;;-0.49;64.75;98161.84;5104807;28;20048;-47
2021/01/10 07:24:13;;;;;;;16.53;11.43;;;-0.80;73.90;;;-0.47;65.27;98167.00;5102684;28;20040;-48
2021/01/10 07:26:49;;;;;;;20.23;11.47;;;-0.80;74.00;;;-0.47;65.20;98167.00;5101521;28;20332;-47
2021/01/10 07:29:33;;;;;;;20.57;10.27;;;-0.80;74.10;;;-0.47;65.18;98167.84;5103832;28;20343;-46
2021/01/10 07:32:06;;;;;;;18.77;9.00;;;-0.80;73.80;;;-0.45;65.53;98165.16;5104052;28;20040;-48
2021/01/10 07:34:59;;;;;;;18.47;11.03;;;-0.70;74.10;;;-0.42;64.53;98167.63;5104015;28;20042;-48
2021/01/10 07:37:29;;;;;;;22.33;10.53;;;-0.70;74.00;;;-0.41;64.64;98175.41;5104058;28;20354;-46
2021/01/10 07:40:06;;;;;;;14.87;8.57;;;-0.70;73.80;;;-0.40;64.46;98178.84;5104070;28;20101;-46
2021/01/10 07:42:39;;;;;;;19.67;12.90;;;-0.70;73.60;;;-0.38;64.97;98173.56;5103796;28;20243;-47
2021/01/10 07:45:20;;;;;;;18.50;9.80;;;-0.70;73.70;;;-0.38;64.86;98171.78;5102051;28;20125;-46
2021/01/10 07:47:52;;;;;;;17.57;8.90;;;-0.70;73.70;;;-0.36;65.16;98183.00;5103890;28;20044;-49
2021/01/10 07:50:24;;;;;;;15.70;8.63;;;-0.70;73.80;;;-0.35;64.52;98176.88;5103858;28;20075;-47
2021/01/10 07:52:57;;;;;;;19.70;10.63;;;-0.60;73.60;;;-0.34;64.79;98165.44;5103608;28;20055;-47
2021/01/10 07:55:32;;;;;;;18.07;9.73;;;-0.60;73.70;;;-0.34;64.63;98178.53;5103470;28;20431;-46
2021/01/10 07:58:02;;;;;;;15.93;9.17;;;-0.60;73.30;;;-0.31;64.71;98182.75;5103604;28;20247;-46
2021/01/10 08:00:50;;;;;;;18.77;10.37;;;-0.60;73.30;;;-0.33;65.00;98182.84;5103517;28;20051;-48
2021/01/10 08:03:27;;;;;;;21.50;11.77;;;-0.60;74.10;;;-0.30;65.19;98187.06;5103551;28;20377;-48
2021/01/10 08:05:57;;;;;;;26.17;12.13;;;-0.50;73.40;;;-0.29;64.74;98179.16;5102834;28;20048;-50
2021/01/10 08:08:40;;;;;;;16.83;10.00;;;-0.60;73.30;;;-0.26;64.63;98191.22;5103549;28;20235;-46
2021/01/10 08:11:08;;;;;;;15.20;9.30;;;-0.50;73.30;;;-0.26;64.70;98180.75;5102071;28;20371;-47
2021/01/10 08:13:46;;;;;;;15.23;9.50;;;-0.50;73.60;;;-0.22;64.67;98180.50;5102798;28;20235;-45
2021/01/10 08:16:23;;;;;;;13.63;8.07;;;-0.50;73.50;;;-0.20;65.34;98181.25;5102800;28;20237;-47
2021/01/10 08:18:51;;;;;;;15.50;8.00;;;-0.50;73.40;;;-0.19;65.08;98184.75;5102827;28;20050;-48
2021/01/10 08:21:18;;;;;;;15.50;7.93;;;-0.50;73.60;;;-0.16;65.10;98187.19;5099952;28;20048;-46
2021/01/10 08:23:53;;;;;;;14.40;8.00;;;-0.50;73.40;;;-0.15;65.08;98194.13;5102274;28;20044;-49
2021/01/10 08:26:21;;;;;;;15.57;9.33;;;-0.50;73.30;;;-0.14;64.62;98185.31;5101871;28;20040;-46
2021/01/10 08:28:56;;;;;;;15.17;8.97;;;-0.40;73.40;;;-0.10;64.40;98191.25;5100739;28;20217;-46
2021/01/10 08:31:26;;;;;;;16.73;8.33;;;-0.40;73.10;;;-0.09;64.56;98185.94;5101036;28;20047;-46
2021/01/10 08:34:16;;;;;;;12.90;7.23;;;-0.40;73.30;;;-0.08;64.19;98190.25;5100587;28;20055;-47
2021/01/10 08:36:46;;;;;;;12.00;7.17;;;-0.40;73.10;;;-0.07;64.28;98188.47;5101552;28;20087;-48
2021/01/10 08:39:18;;;;;;;13.93;7.73;;;-0.40;73.20;;;-0.05;64.46;98184.00;5101288;28;20239;-46
2021/01/10 08:41:47;;;;;;;12.77;8.10;;;-0.40;72.90;;;-0.03;64.70;98179.53;5102012;28;20040;-47
2021/01/10 08:44:18;;;;;;;12.23;7.60;;;-0.40;73.00;;;-0.01;64.45;98181.13;5101832;28;20340;-50
2021/01/10 08:46:49;;;;;;;13.77;8.40;;;-0.30;73.10;;;-0.01;64.07;98183.75;5100074;28;20066;-48
2021/01/10 08:49:19;;;;;;;14.40;7.53;;;-0.30;73.00;;;0.00;64.90;98176.75;5100350;28;20055;-48
2021/01/10 08:51:49;;;;;;;13.27;6.80;;;-0.40;73.00;;;-0.01;64.45;98185.53;5101243;28;20097;-48
2021/01/10 08:54:24;;;;;;;12.77;7.73;;;-0.40;72.70;;;-0.02;64.43;98182.06;5100759;28;20044;-47
2021/01/10 08:56:57;;;;;;;13.93;8.48;;;-0.40;73.00;;;-0.02;64.76;98178.59;5084179;28;20050;-50
2021/01/10 08:59:36;;;;;;;15.00;7.47;;;-0.40;73.10;;;-0.03;64.76;98179.53;5100393;28;20074;-47
2021/01/10 09:02:09;;;;;;;13.03;7.93;;;-0.40;73.00;;;-0.02;64.29;98186.44;5100074;28;20060;-49
2021/01/10 09:04:44;;;;;;;14.70;8.33;;;-0.40;74.20;;;0.01;64.24;98190.69;5101338;28;20058;-47
2021/01/10 09:07:11;;;;;;;15.97;9.37;;;-0.40;73.40;;;0.01;64.94;98188.06;5099478;28;20048;-47
2021/01/10 09:09:52;;;;;;;19.17;9.90;;;-0.30;73.60;;;0.02;65.14;98182.75;5100944;28;20044;-47
2021/01/10 09:12:33;;;;;;;19.90;11.03;;;-0.30;73.70;;;0.04;64.25;98193.13;5101104;28;20046;-47
2021/01/10 09:15:08;;;;;;;20.70;11.87;;;-0.30;73.60;;;0.05;64.96;98198.28;5100935;28;20051;-48
2021/01/10 09:17:45;;;;;;;22.90;12.53;;;-0.30;73.60;;;0.08;64.80;98198.13;5101271;28;20377;-48
2021/01/10 09:20:25;;;;;;;21.30;13.10;;;-0.20;73.60;;;0.11;65.01;98200.56;5100201;28;20048;-46
2021/01/10 09:22:57;;;;;;;21.00;14.27;;;-0.20;73.40;;;0.14;64.84;98200.41;5098792;28;20047;-47
2021/01/10 09:25:25;;;;;;;29.03;16.87;;;-0.10;73.50;;;0.18;65.03;98203.72;5081918;28;20184;-48
2021/01/10 09:28:10;;;;;;;23.13;16.53;;;-0.10;73.50;;;0.20;64.60;98201.88;5100628;28;20058;-48
2021/01/10 09:30:41;;;;;;;38.83;24.30;;;-0.10;73.10;;;0.21;64.84;98197.47;5100574;28;20039;-48
2021/01/10 09:33:09;;;;;;;31.20;16.83;;;-0.20;73.40;;;0.19;64.81;98201.03;5080769;28;20052;-46
2021/01/10 09:35:47;;;;;;;24.73;14.43;;;-0.10;73.70;;;0.23;64.54;98195.59;5099979;28;20059;-47
2021/01/10 09:38:17;;;;;;;19.10;11.27;;;-0.10;73.60;;;0.20;64.15;98196.63;5100572;28;20052;-49
2021/01/10 09:41:14;;;;;;;15.03;10.03;;;-0.10;73.30;;;0.18;64.45;98201.94;5101205;28;20335;-47
2021/01/10 09:43:52;;;;;;;16.23;10.53;;;-0.10;73.10;;;0.18;64.78;98201.94;5101476;28;20064;-47
2021/01/10 09:46:37;;;;;;;28.57;13.57;;;-0.10;73.40;;;0.19;64.27;98208.03;5102976;28;20109;-48
2021/01/10 09:49:29;;;;;;;29.47;13.80;;;-0.20;73.50;;;0.17;64.36;98207.25;5105639;28;20044;-47
2021/01/10 09:52:10;;;;;;;18.57;9.50;;;-0.20;73.40;;;0.18;64.50;98206.34;5105207;28;20067;-47
2021/01/10 09:54:38;;;;;;;17.63;9.70;;;-0.10;73.50;;;0.18;64.69;98201.94;5105891;28;20058;-48
2021/01/10 09:57:11;;;;;;;15.97;10.33;;;-0.10;73.40;;;0.21;64.51;98200.91;5105424;28;20036;-47
2021/01/10 09:59:46;;;;;;;12.45;8.50;;;-0.10;73.30;;;0.23;64.10;98200.84;5106068;28;20040;-47
2021/01/10 10:02:26;;;;;;;13.10;7.97;;;-0.10;73.10;;;0.23;64.45;98201.69;5105631;28;20067;-50
2021/01/10 10:05:06;;;;;;;16.97;10.10;;;-0.10;73.10;;;0.23;63.85;98199.06;5104326;28;20070;-48
2021/01/10 10:07:37;;;;;;;17.47;9.50;;;-0.10;73.10;;;0.26;63.97;98205.94;5098929;28;20052;-49
2021/01/10 10:10:26;;;;;;;14.43;9.23;;;0.00;73.20;;;0.26;64.63;98200.69;5103631;28;20048;-47
2021/01/10 10:13:05;;;;;;;14.70;8.63;;;0.00;72.70;;;0.25;64.35;98199.81;5075371;28;20048;-47
2021/01/10 10:15:42;;;;;;;12.90;8.30;;;0.00;72.60;;;0.25;64.38;98202.44;5081815;28;20264;-48
2021/01/10 10:18:31;;;;;;;15.50;8.73;;;-0.10;72.80;;;0.24;64.60;98197.31;5083426;28;20255;-48
2021/01/10 10:21:00;;;;;;;17.80;8.47;;;0.00;72.80;;;0.25;64.72;98197.22;5102362;28;20074;-48
2021/01/10 10:23:27;;;;;;;14.47;9.20;;;0.00;72.80;;;0.27;64.19;98189.28;5104627;28;20048;-47
2021/01/10 10:25:55;;;;;;;27.97;12.70;;;0.00;72.70;;;0.28;63.97;98196.22;5098090;28;20048;-47
2021/01/10 10:28:22;;;;;;;39.77;18.53;;;0.00;72.70;;;0.25;63.91;98184.09;5098555;28;20336;-51
2021/01/10 10:30:50;;;;;;;22.33;12.37;;;0.00;72.60;;;0.25;64.49;98183.28;5104537;28;20056;-45
2021/01/10 10:33:17;;;;;;;22.93;12.93;;;0.10;72.60;;;0.26;64.24;98185.81;5104608;28;20043;-46
2021/01/10 10:35:45;;;;;;;16.57;10.83;;;0.10;72.50;;;0.25;64.41;98188.50;5103476;28;20052;-45